Naches, WA

7:30 PM PDT on October 01, 2014 (GMT -0700)
MesoWest WHITE PASS E.S. WA US SNOTEL | Change Station
CLOSE
Current Station
Personal Weather Station
Location: Packwood, WA
Elevation: 4500 ft
Nearby Weather Stations

Elev 4500 ft 46.64 °N, 121.38 °W | Updated 5 hours ago

Mostly Cloudy
Mostly Cloudy
47.0 °F
Feels Like 47.0 °F
N
-
Wind Variable Wind from North

Today
High -- | Low -- °F
--% Chance of Precip.
Yesterday
High -- | Low -- °F
Precip. -- in
7:04 AM 6:45 PM
First Quarter, 53% visible
Pressure 30.19 in
Visibility 10.0 miles
Clouds Mostly Cloudy 5000 ft
Dew Point Not available.
Humidity Not available.
Rainfall -999.00 in
Snow Depth 0 in , 1 in , 0 in
UV 0 out of 12
Pollen 1.90 out of 12
Air Quality Not available.
Flu Activity Not available.
METAR KTCM 020158Z AUTO 26005KT 10SM BKN050 16/08 A3018 RMK AO2 SLP224 T01630081 $

More Conditions Fewer Conditions

Pressure 30.19 in
Visibility 10.0 miles
Clouds Mostly Cloudy 5000 ft
Dew Point Not available.
Humidity Not available.
Rainfall -999.00 in
Snow Depth 0 in , 1 in , 0 in
UV 0 out of 12
Pollen 1.90 out of 12
Air Quality Not available.
Flu Activity Not available.
METAR KTCM 020158Z AUTO 26005KT 10SM BKN050 16/08 A3018 RMK AO2 SLP224 T01630081 $

More Conditions Fewer Conditions

10-Day Weather Forecast

Almanac

Astronomy

Oct. 01, 2014 Rise Set
Actual Time 7:04 AM PDT 6:45 PM PDT
Civil Twilight 6:34 AM PDT 7:15 PM PDT
Nautical Twilight 5:59 AM PDT 7:50 PM PDT
Astronomical Twilight 5:23 AM PDT 8:25 PM PDT
Moon 2:25 PM PDT (10/1) No Moon Set
Length of Visible Light 12h 41m
Length of Day
11h 40m
Tomorrow will be 3m 17s shorter.
First Quarter, 53% of the Moon is Illuminated
Today
First Quarter
Oct 8
Full
Oct 15
Last Quarter
Oct 23
New
Oct 30
First Quarter

Today's Extremes

State Highs State Lows

Community

WunderPhotos

Upload Photos

1,758,147 photos uploaded!

WunderBlogs® & News

Nearby

Snow Depth

Station Depth Elevation
Harts Pass 0 in 6500 ft
Quartz Peak 1 in 4700 ft
Dungeness 0 in 4100 ft
Sheep Canyon 0 in 4030 ft
Pope Ridge 0 in 3540 ft

Earthquake Activity

City Distance Mag. Time & Date
No recent earthquake activity has been reported nearby.
Minimum magnitude displayed is 2.5.

Coastal Water Temperatures

Place Temperature
No Stations Reporting

Nearby Weather Stations